Time;durP1;ratioP1;P1;durP2;ratioP2;P2;SDS_P1;SDS_P2;PMS_P1;PMS_P2;Temp;Humidity;BMP_temperature;BMP_pressure;BME280_temperature;BME280_humidity;BME280_pressure;Samples;Min_cycle;Max_cycle;Signal;HPM_P1;HPM_P2
2021/09/12 00:00:42;;;;;;;13.73;12.23;;;18.30;93.00;;;;;;4933848;29;20043;-74
2021/09/12 00:03:08;;;;;;;14.40;11.73;;;18.30;92.90;;;;;;4932890;29;20174;-74
2021/09/12 00:05:34;;;;;;;16.35;11.95;;;18.30;92.80;;;;;;4930318;29;20028;-74
2021/09/12 00:08:00;;;;;;;13.43;11.98;;;18.30;92.80;;;;;;4932005;29;20066;-74
2021/09/12 00:10:26;;;;;;;15.52;12.65;;;18.30;92.90;;;;;;4933671;29;20731;-74
2021/09/12 00:12:52;;;;;;;15.82;12.80;;;18.30;93.00;;;;;;4933329;29;20031;-74
2021/09/12 00:15:19;;;;;;;15.38;11.88;;;18.20;92.90;;;;;;4930698;29;20062;-74
2021/09/12 00:17:45;;;;;;;15.10;11.38;;;18.20;92.70;;;;;;4932508;29;20027;-74
2021/09/12 00:20:12;;;;;;;15.68;13.13;;;18.20;92.60;;;;;;4933940;29;20036;-74
2021/09/12 00:22:38;;;;;;;13.27;11.32;;;18.10;92.60;;;;;;4934327;29;20141;-74
2021/09/12 00:25:04;;;;;;;15.38;12.45;;;18.10;92.60;;;;;;4936030;29;20039;-74
2021/09/12 00:27:30;;;;;;;14.75;12.30;;;18.10;92.60;;;;;;4935771;29;20622;-74
2021/09/12 00:29:56;;;;;;;13.80;12.18;;;18.10;92.60;;;;;;4933088;28;20031;-74
2021/09/12 00:32:23;;;;;;;17.80;13.88;;;18.10;92.60;;;;;;4935469;29;20051;-74
2021/09/12 00:34:49;;;;;;;17.33;13.63;;;18.00;92.60;;;;;;4935529;28;20100;-73
2021/09/12 00:37:14;;;;;;;16.50;12.90;;;18.00;92.70;;;;;;4932413;29;20610;-73
2021/09/12 00:39:40;;;;;;;15.15;13.15;;;18.00;92.70;;;;;;4933078;28;20039;-73
2021/09/12 00:42:06;;;;;;;16.63;13.05;;;18.00;92.80;;;;;;4934247;29;20043;-74
2021/09/12 00:44:32;;;;;;;14.70;12.13;;;18.00;92.90;;;;;;4932696;28;20028;-74
2021/09/12 00:47:10;;;;;;;20.20;13.43;;;17.90;93.00;;;;;;4933761;29;20645;-74
2021/09/12 00:49:36;;;;;;;15.80;12.68;;;17.90;93.00;;;;;;4931072;29;20604;-74
2021/09/12 00:52:02;;;;;;;16.90;13.07;;;17.90;93.10;;;;;;4937238;28;20035;-74
2021/09/12 00:54:29;;;;;;;14.85;12.63;;;17.90;93.20;;;;;;4931875;29;20074;-74
2021/09/12 00:56:56;;;;;;;14.18;12.35;;;17.90;93.20;;;;;;4934506;29;20035;-74
2021/09/12 00:59:23;;;;;;;15.52;12.90;;;17.90;93.20;;;;;;4930860;29;20039;-74
2021/09/12 01:01:49;;;;;;;17.65;13.43;;;17.90;93.20;;;;;;4933843;29;20150;-74
2021/09/12 01:04:15;;;;;;;16.02;13.02;;;17.90;93.20;;;;;;4932089;29;20138;-74
2021/09/12 01:06:42;;;;;;;16.10;13.13;;;17.90;93.20;;;;;;4948085;28;20564;-74
2021/09/12 01:09:08;;;;;;;16.65;14.30;;;17.90;93.20;;;;;;4928022;29;20496;-74
2021/09/12 01:11:34;;;;;;;17.10;13.07;;;17.90;93.10;;;;;;4933383;28;20034;-74
2021/09/12 01:14:00;;;;;;;14.48;12.65;;;17.90;93.00;;;;;;4930131;28;20042;-74
2021/09/12 01:16:26;;;;;;;16.05;12.55;;;17.80;92.90;;;;;;4931436;29;20039;-74
2021/09/12 01:18:51;;;;;;;15.77;12.82;;;17.80;92.80;;;;;;4932353;29;20484;-74
2021/09/12 01:21:22;;;;;;;14.90;13.07;;;17.80;92.80;;;;;;4934042;28;20035;-75
2021/09/12 01:23:48;;;;;;;16.38;12.40;;;17.80;92.90;;;;;;4935842;28;20031;-74
2021/09/12 01:26:23;;;;;;;17.25;13.38;;;17.70;92.90;;;;;;4935226;29;20039;-74
2021/09/12 01:28:50;;;;;;;16.98;13.02;;;17.70;93.20;;;;;;4931642;29;20035;-74
2021/09/12 01:31:24;;;;;;;15.40;12.60;;;17.70;92.90;;;;;;4934212;29;20127;-74
2021/09/12 01:33:50;;;;;;;14.73;13.00;;;17.70;92.90;;;;;;4934278;29;20078;-74
2021/09/12 01:36:16;;;;;;;16.80;12.82;;;17.70;93.00;;;;;;4933215;28;20058;-74
2021/09/12 01:38:43;;;;;;;16.65;13.02;;;17.70;93.00;;;;;;4935091;29;20376;-74
2021/09/12 01:41:10;;;;;;;15.70;12.02;;;17.70;93.00;;;;;;4937067;29;20081;-74
2021/09/12 01:43:35;;;;;;;16.45;13.13;;;17.60;93.00;;;;;;4930711;29;20126;-74
2021/09/12 01:46:01;;;;;;;17.85;12.55;;;17.60;93.10;;;;;;4934671;29;20110;-74
2021/09/12 01:48:27;;;;;;;14.88;12.85;;;17.60;93.10;;;;;;4935259;29;20530;-74
2021/09/12 01:50:52;;;;;;;14.20;12.70;;;17.60;93.10;;;;;;4931752;28;20396;-74
2021/09/12 01:53:18;;;;;;;15.80;12.75;;;17.60;93.10;;;;;;4934028;28;20396;-74
2021/09/12 01:55:44;;;;;;;14.93;13.32;;;17.60;93.00;;;;;;4933503;29;20035;-74
2021/09/12 01:58:09;;;;;;;17.90;13.10;;;17.60;93.00;;;;;;4931975;28;20031;-74
2021/09/12 02:00:35;;;;;;;14.38;12.45;;;17.50;93.10;;;;;;4934648;29;20095;-74
2021/09/12 02:03:01;;;;;;;14.35;12.57;;;17.50;93.10;;;;;;4933787;29;20582;-74
2021/09/12 02:05:27;;;;;;;18.35;14.13;;;17.60;93.20;;;;;;4933873;29;20038;-74
2021/09/12 02:07:52;;;;;;;17.27;13.52;;;17.50;93.10;;;;;;4933300;29;20105;-74
2021/09/12 02:10:18;;;;;;;17.80;14.15;;;17.50;93.10;;;;;;4930195;29;20027;-74
2021/09/12 02:12:44;;;;;;;15.30;13.60;;;17.50;93.20;;;;;;4933504;29;20040;-74
2021/09/12 02:15:10;;;;;;;17.63;13.82;;;17.50;93.20;;;;;;4932459;29;20086;-74
2021/09/12 02:17:36;;;;;;;14.55;12.93;;;17.50;93.20;;;;;;4933831;29;20045;-74
2021/09/12 02:20:02;;;;;;;17.63;13.55;;;17.50;93.30;;;;;;4930969;28;20090;-74
2021/09/12 02:22:28;;;;;;;21.02;13.82;;;17.50;93.30;;;;;;4933890;29;20094;-74
2021/09/12 02:24:54;;;;;;;16.33;12.80;;;17.40;93.20;;;;;;4933056;29;20040;-74
2021/09/12 02:27:19;;;;;;;13.90;12.43;;;17.40;93.20;;;;;;4934308;29;20039;-74
2021/09/12 02:29:45;;;;;;;15.32;13.55;;;17.50;93.20;;;;;;4933053;28;20039;-74
2021/09/12 02:32:11;;;;;;;15.38;13.70;;;17.40;93.10;;;;;;4931011;29;20100;-74
2021/09/12 02:34:36;;;;;;;15.93;13.20;;;17.50;93.20;;;;;;4932503;29;20039;-74
2021/09/12 02:37:02;;;;;;;17.40;13.82;;;17.50;93.10;;;;;;4931121;28;20039;-74
2021/09/12 02:39:28;;;;;;;22.63;14.52;;;17.50;93.10;;;;;;4931256;29;20130;-74
2021/09/12 02:41:53;;;;;;;17.00;13.98;;;17.40;93.00;;;;;;4933703;29;20038;-74
2021/09/12 02:44:19;;;;;;;15.50;13.20;;;17.40;92.90;;;;;;4932283;28;20046;-74
2021/09/12 02:46:45;;;;;;;15.57;13.88;;;17.40;93.10;;;;;;4932490;29;20041;-74
2021/09/12 02:49:10;;;;;;;18.38;14.32;;;17.40;93.00;;;;;;4930839;28;20035;-74
2021/09/12 02:51:36;;;;;;;16.70;14.40;;;17.40;93.00;;;;;;4932324;29;20078;-74
2021/09/12 02:54:02;;;;;;;16.75;13.93;;;17.40;93.00;;;;;;4933327;28;20089;-74
2021/09/12 02:56:27;;;;;;;19.20;14.50;;;17.40;93.00;;;;;;4930319;29;20040;-74
2021/09/12 02:58:53;;;;;;;16.85;14.73;;;17.40;92.90;;;;;;4930521;29;21014;-74
2021/09/12 03:01:18;;;;;;;14.98;13.23;;;17.40;92.90;;;;;;4933794;29;20039;-74
2021/09/12 03:03:44;;;;;;;15.23;13.63;;;17.40;92.90;;;;;;4929402;28;20040;-74
2021/09/12 03:06:10;;;;;;;17.92;14.23;;;17.40;92.80;;;;;;4931720;29;20039;-74
2021/09/12 03:08:35;;;;;;;16.52;13.63;;;17.40;92.80;;;;;;4932158;29;20043;-74
2021/09/12 03:11:01;;;;;;;15.68;13.88;;;17.40;92.90;;;;;;4930642;29;20046;-74
2021/09/12 03:13:27;;;;;;;17.42;15.02;;;17.40;92.90;;;;;;4931170;29;20040;-74
2021/09/12 03:15:52;;;;;;;17.23;14.93;;;17.40;92.80;;;;;;4932765;28;20031;-74
2021/09/12 03:18:18;;;;;;;16.65;14.18;;;17.40;92.90;;;;;;4931266;29;20069;-75
2021/09/12 03:20:44;;;;;;;14.52;12.77;;;17.40;92.90;;;;;;4932599;29;20059;-74
2021/09/12 03:23:10;;;;;;;15.13;13.20;;;17.40;92.90;;;;;;4932035;29;20040;-74
2021/09/12 03:25:35;;;;;;;16.58;13.18;;;17.40;92.90;;;;;;4931295;29;20913;-74
2021/09/12 03:28:01;;;;;;;16.60;13.25;;;17.40;92.80;;;;;;4932650;28;20051;-74
2021/09/12 03:30:30;;;;;;;14.80;12.88;;;17.40;92.70;;;;;;4933057;29;20031;-74
2021/09/12 03:32:55;;;;;;;14.77;12.75;;;17.50;92.80;;;;;;4944476;28;20027;-74
2021/09/12 03:35:21;;;;;;;16.20;13.43;;;17.50;92.70;;;;;;4934783;28;20030;-74
2021/09/12 03:37:47;;;;;;;15.10;13.40;;;17.50;92.70;;;;;;4939424;28;20479;-74
2021/09/12 03:40:12;;;;;;;16.13;13.35;;;17.60;92.70;;;;;;4935517;29;20058;-75
2021/09/12 03:42:38;;;;;;;15.20;13.43;;;17.60;92.70;;;;;;4930349;28;20062;-75
2021/09/12 03:45:05;;;;;;;15.50;13.70;;;17.60;92.70;;;;;;4944660;28;20046;-74
2021/09/12 03:47:30;;;;;;;16.20;13.68;;;17.70;92.70;;;;;;4930503;28;20436;-74
2021/09/12 03:49:56;;;;;;;15.10;13.15;;;17.70;92.70;;;;;;4939290;28;20038;-75
2021/09/12 03:52:22;;;;;;;14.50;12.95;;;17.70;92.60;;;;;;4931258;28;20495;-74
2021/09/12 03:54:47;;;;;;;15.25;12.45;;;17.70;92.50;;;;;;4933048;28;20049;-74
2021/09/12 03:57:13;;;;;;;14.77;13.00;;;17.70;92.50;;;;;;4933846;28;20897;-74
2021/09/12 03:59:39;;;;;;;14.88;12.95;;;17.70;92.50;;;;;;4933512;28;20035;-75
2021/09/12 04:02:04;;;;;;;14.20;12.50;;;17.60;92.30;;;;;;4933955;28;20123;-75
2021/09/12 04:04:30;;;;;;;15.88;13.35;;;17.50;92.30;;;;;;4929386;29;20476;-74
2021/09/12 04:06:56;;;;;;;16.48;13.20;;;17.50;92.30;;;;;;4933438;28;20120;-74
2021/09/12 04:09:21;;;;;;;15.82;12.60;;;17.40;92.20;;;;;;4932352;28;20038;-74
2021/09/12 04:11:47;;;;;;;16.75;13.25;;;17.40;92.30;;;;;;4935758;28;20077;-74
2021/09/12 04:14:13;;;;;;;15.63;13.10;;;17.40;92.40;;;;;;4932792;28;20085;-74
2021/09/12 04:16:38;;;;;;;14.07;12.60;;;17.30;92.40;;;;;;4935145;29;20142;-74
2021/09/12 04:19:04;;;;;;;13.45;11.98;;;17.30;92.40;;;;;;4940254;28;20101;-74
2021/09/12 04:21:30;;;;;;;15.68;12.88;;;17.30;92.30;;;;;;4944176;28;20062;-74
2021/09/12 04:23:55;;;;;;;18.38;14.07;;;17.20;92.20;;;;;;4933689;28;20035;-74
2021/09/12 04:26:21;;;;;;;13.93;11.98;;;17.20;92.20;;;;;;4934371;28;20192;-74
2021/09/12 04:28:47;;;;;;;16.27;13.25;;;17.20;92.40;;;;;;4938179;28;20027;-74
2021/09/12 04:31:12;;;;;;;16.67;13.88;;;17.10;92.60;;;;;;4935026;29;20050;-74
2021/09/12 04:33:38;;;;;;;19.60;13.57;;;17.10;92.70;;;;;;4933084;29;20130;-74
2021/09/12 04:36:04;;;;;;;15.40;13.18;;;17.10;92.60;;;;;;4936330;28;20035;-74
2021/09/12 04:38:30;;;;;;;15.80;12.20;;;17.00;92.60;;;;;;4943607;28;20716;-74
2021/09/12 04:40:56;;;;;;;13.77;12.20;;;17.00;92.70;;;;;;4934820;28;20043;-73
2021/09/12 04:43:21;;;;;;;17.35;13.68;;;17.10;92.70;;;;;;4942614;28;20038;-73
2021/09/12 04:45:47;;;;;;;17.02;13.45;;;17.00;92.70;;;;;;4936196;28;20078;-74
2021/09/12 04:48:13;;;;;;;18.17;13.10;;;17.00;92.70;;;;;;4936530;28;20534;-73
2021/09/12 04:50:39;;;;;;;17.90;13.77;;;17.00;92.70;;;;;;4936203;28;20032;-73
2021/09/12 04:53:05;;;;;;;16.98;13.10;;;17.00;92.90;;;;;;4938070;28;20036;-75
2021/09/12 04:55:31;;;;;;;15.80;13.40;;;17.00;92.90;;;;;;4937552;28;20043;-73
2021/09/12 04:57:56;;;;;;;16.85;13.13;;;17.00;92.90;;;;;;4942334;28;20039;-73
2021/09/12 05:00:22;;;;;;;18.42;13.68;;;17.00;92.90;;;;;;4933838;28;20034;-73
2021/09/12 05:02:48;;;;;;;18.55;12.25;;;17.10;93.00;;;;;;4943057;28;20097;-73
2021/09/12 05:05:14;;;;;;;14.15;12.20;;;17.10;92.90;;;;;;4941955;28;20059;-73
2021/09/12 05:07:39;;;;;;;16.20;11.82;;;17.10;92.80;;;;;;4934934;28;20027;-73
2021/09/12 05:10:05;;;;;;;15.75;12.05;;;17.10;92.70;;;;;;4935740;29;20153;-73
2021/09/12 05:12:31;;;;;;;14.82;12.27;;;17.10;92.70;;;;;;4937570;28;20045;-72
2021/09/12 05:14:57;;;;;;;17.10;12.57;;;17.10;92.70;;;;;;4931969;28;20558;-76
2021/09/12 05:17:22;;;;;;;15.13;12.43;;;17.10;92.60;;;;;;4937051;28;20119;-75
2021/09/12 05:19:48;;;;;;;18.10;13.15;;;17.10;92.60;;;;;;4944199;28;20146;-75
2021/09/12 05:22:14;;;;;;;16.83;13.40;;;17.20;92.60;;;;;;4944533;28;20039;-80
2021/09/12 05:24:40;;;;;;;13.43;11.52;;;17.20;92.60;;;;;;4928713;28;20039;-76
2021/09/12 05:27:06;;;;;;;17.13;13.07;;;17.20;92.50;;;;;;4930038;28;20051;-75
2021/09/12 05:29:31;;;;;;;16.65;13.15;;;17.20;92.50;;;;;;4935878;28;20126;-77
2021/09/12 05:31:57;;;;;;;15.25;12.60;;;17.30;92.50;;;;;;4930872;29;20063;-77
2021/09/12 05:34:23;;;;;;;15.07;12.80;;;17.30;92.50;;;;;;4942796;28;20097;-77
2021/09/12 05:36:48;;;;;;;15.38;12.82;;;17.30;92.50;;;;;;4932488;28;20044;-77
2021/09/12 05:39:14;;;;;;;16.50;12.30;;;17.40;92.50;;;;;;4935196;28;20074;-77
2021/09/12 05:41:40;;;;;;;14.82;12.18;;;17.40;92.40;;;;;;4937299;28;20047;-77
2021/09/12 05:44:06;;;;;;;14.07;12.38;;;17.50;92.40;;;;;;4935133;28;20040;-76
2021/09/12 05:46:35;;;;;;;17.02;13.82;;;17.50;92.40;;;;;;4934322;28;20486;-76
2021/09/12 05:49:02;;;;;;;14.90;12.18;;;17.60;92.40;;;;;;4935778;29;20122;-74
2021/09/12 05:51:28;;;;;;;16.55;13.23;;;17.60;92.30;;;;;;4929777;29;20786;-75
2021/09/12 05:53:53;;;;;;;17.55;13.23;;;17.70;92.30;;;;;;4942679;28;20129;-75
2021/09/12 05:56:19;;;;;;;16.50;12.45;;;17.70;92.20;;;;;;4935125;28;20138;-75
2021/09/12 05:58:45;;;;;;;16.20;13.27;;;17.80;92.10;;;;;;4932726;28;20039;-74
2021/09/12 06:01:13;;;;;;;14.68;12.23;;;17.80;92.00;;;;;;4933671;28;20855;-76
2021/09/12 06:03:39;;;;;;;15.45;13.10;;;17.90;92.00;;;;;;4942494;28;20066;-76
2021/09/12 06:06:05;;;;;;;15.75;12.57;;;17.90;92.00;;;;;;4930698;29;20035;-76
2021/09/12 06:08:30;;;;;;;18.17;13.63;;;18.00;91.90;;;;;;4927499;29;20098;-74
2021/09/12 06:10:56;;;;;;;14.88;12.43;;;18.00;91.80;;;;;;4935462;28;20035;-76
2021/09/12 06:13:25;;;;;;;15.68;11.90;;;18.10;91.70;;;;;;4939136;28;20031;-76
2021/09/12 06:15:51;;;;;;;17.90;13.32;;;18.10;91.60;;;;;;4941566;28;20084;-76
2021/09/12 06:18:17;;;;;;;15.95;12.88;;;18.10;91.60;;;;;;4935885;28;20041;-74
2021/09/12 06:20:43;;;;;;;18.77;13.45;;;18.20;91.50;;;;;;4931044;28;20043;-77
2021/09/12 06:23:08;;;;;;;19.45;14.57;;;18.20;91.20;;;;;;4935015;29;20054;-77
2021/09/12 06:25:34;;;;;;;16.50;12.90;;;18.30;91.30;;;;;;4933324;28;20494;-77
2021/09/12 06:28:00;;;;;;;18.20;12.68;;;18.30;91.30;;;;;;4940680;28;20101;-77
2021/09/12 06:30:26;;;;;;;16.67;13.23;;;18.30;91.40;;;;;;4928119;29;20126;-76
2021/09/12 06:32:51;;;;;;;15.63;13.25;;;18.40;91.30;;;;;;4931670;28;20035;-74
2021/09/12 06:35:17;;;;;;;15.02;12.50;;;18.40;91.40;;;;;;4938582;28;20035;-73
2021/09/12 06:37:43;;;;;;;17.30;13.02;;;18.50;91.40;;;;;;4933059;28;20062;-74
2021/09/12 06:40:09;;;;;;;16.38;13.02;;;18.60;91.30;;;;;;4934068;29;20035;-74
2021/09/12 06:42:35;;;;;;;16.23;13.30;;;18.70;91.20;;;;;;4941594;28;20046;-74
2021/09/12 06:45:01;;;;;;;22.92;13.73;;;18.80;91.10;;;;;;4935061;29;20032;-78
2021/09/12 06:47:26;;;;;;;16.55;12.23;;;19.00;91.00;;;;;;4947939;28;20032;-81
2021/09/12 06:49:52;;;;;;;14.73;12.02;;;19.10;90.70;;;;;;4932075;29;20049;-75
2021/09/12 06:52:18;;;;;;;16.05;13.00;;;19.20;90.20;;;;;;4934431;28;20024;-73
2021/09/12 06:54:43;;;;;;;15.63;13.23;;;19.30;90.10;;;;;;4936599;28;20039;-74
2021/09/12 06:57:09;;;;;;;14.02;12.43;;;19.40;90.10;;;;;;4933286;28;20227;-73
2021/09/12 06:59:35;;;;;;;17.73;13.05;;;19.50;90.00;;;;;;4941410;28;20039;-74
2021/09/12 07:02:00;;;;;;;14.38;11.30;;;19.60;89.90;;;;;;4937071;28;20049;-73
2021/09/12 07:04:26;;;;;;;14.85;11.68;;;19.60;89.30;;;;;;4938393;28;20031;-74
2021/09/12 07:06:51;;;;;;;15.73;12.63;;;19.70;89.50;;;;;;4934239;28;20385;-74
2021/09/12 07:09:17;;;;;;;17.08;12.18;;;19.80;89.00;;;;;;4939023;28;20575;-73
2021/09/12 07:11:43;;;;;;;15.18;12.23;;;19.90;88.30;;;;;;4934149;28;20043;-74
2021/09/12 07:14:08;;;;;;;14.05;12.38;;;20.00;88.00;;;;;;4935322;28;20046;-73
2021/09/12 07:16:34;;;;;;;16.67;12.32;;;20.00;87.90;;;;;;4935097;28;20495;-73
2021/09/12 07:19:00;;;;;;;15.85;11.40;;;20.00;87.90;;;;;;4933291;28;20087;-73
2021/09/12 07:21:25;;;;;;;15.60;12.40;;;20.00;87.80;;;;;;4932527;29;20035;-73
2021/09/12 07:23:51;;;;;;;14.68;11.45;;;20.10;88.00;;;;;;4936708;28;20031;-75
2021/09/12 07:26:17;;;;;;;13.30;10.73;;;20.10;87.60;;;;;;4933593;28;20754;-75
2021/09/12 07:28:43;;;;;;;14.70;11.38;;;20.10;87.60;;;;;;4935404;28;20562;-77
2021/09/12 07:31:09;;;;;;;16.33;13.35;;;20.10;88.40;;;;;;4937903;28;20130;-72
2021/09/12 07:33:34;;;;;;;16.25;11.70;;;20.20;86.70;;;;;;4937612;28;20106;-71
2021/09/12 07:36:00;;;;;;;15.02;12.30;;;20.10;86.80;;;;;;4947775;28;20130;-71
2021/09/12 07:38:26;;;;;;;15.40;12.10;;;20.00;87.20;;;;;;4935228;28;20071;-71
2021/09/12 07:40:52;;;;;;;17.45;13.02;;;20.00;87.50;;;;;;4941950;28;20066;-72
2021/09/12 07:43:18;;;;;;;16.52;12.73;;;20.00;87.90;;;;;;4935553;28;20942;-71
2021/09/12 07:45:44;;;;;;;15.57;12.10;;;20.00;88.00;;;;;;4935001;28;20058;-72
2021/09/12 07:48:10;;;;;;;14.18;11.25;;;20.00;87.90;;;;;;4929904;28;20551;-71
2021/09/12 07:50:35;;;;;;;12.40;10.65;;;20.00;88.70;;;;;;4940062;28;20028;-76
2021/09/12 07:53:02;;;;;;;11.90;10.68;;;20.00;88.90;;;;;;4942057;28;20041;-74
2021/09/12 07:55:27;;;;;;;14.60;11.75;;;20.10;89.30;;;;;;4940949;28;20043;-72
2021/09/12 07:57:53;;;;;;;17.63;13.27;;;20.10;89.50;;;;;;4934934;29;20050;-73
2021/09/12 08:00:19;;;;;;;17.80;12.25;;;20.10;89.50;;;;;;4940878;28;20031;-73
2021/09/12 08:02:44;;;;;;;18.42;12.38;;;20.20;89.20;;;;;;4934981;28;20043;-73
2021/09/12 08:05:11;;;;;;;20.83;15.65;;;20.20;89.20;;;;;;4942271;28;20121;-73
2021/09/12 08:07:37;;;;;;;18.90;14.55;;;20.20;88.40;;;;;;4936812;28;20031;-72
2021/09/12 08:10:03;;;;;;;16.85;14.23;;;20.30;88.40;;;;;;4932817;29;20827;-73
2021/09/12 08:12:29;;;;;;;20.80;14.35;;;20.30;88.40;;;;;;4931372;29;20491;-73
2021/09/12 08:14:55;;;;;;;22.88;15.40;;;20.30;88.30;;;;;;4938291;28;20119;-75
2021/09/12 08:17:21;;;;;;;18.17;14.25;;;20.40;87.70;;;;;;4930894;29;20146;-76
2021/09/12 08:19:46;;;;;;;17.00;13.43;;;20.40;87.50;;;;;;4940277;29;20039;-72
2021/09/12 08:22:12;;;;;;;17.40;13.77;;;20.40;87.60;;;;;;4936476;29;20039;-71
2021/09/12 08:24:38;;;;;;;15.45;11.68;;;20.50;88.10;;;;;;4941872;28;20989;-73
2021/09/12 08:27:03;;;;;;;21.83;15.43;;;20.60;88.20;;;;;;4937542;28;20039;-72
2021/09/12 08:29:29;;;;;;;17.85;13.18;;;20.80;86.50;;;;;;4940045;28;20036;-72
2021/09/12 08:31:55;;;;;;;16.73;13.88;;;20.80;85.70;;;;;;4934253;28;20034;-72
2021/09/12 08:34:23;;;;;;;19.35;14.80;;;20.80;85.80;;;;;;4939290;28;20423;-72
2021/09/12 08:36:50;;;;;;;17.00;12.48;;;20.90;85.90;;;;;;4942366;28;20047;-73
2021/09/12 08:39:15;;;;;;;20.95;14.05;;;21.00;86.50;;;;;;4932319;29;20511;-74
2021/09/12 08:41:41;;;;;;;16.63;13.40;;;21.10;85.10;;;;;;4939320;28;20031;-71
2021/09/12 08:44:08;;;;;;;16.65;12.68;;;21.10;85.00;;;;;;4948413;28;20043;-72
2021/09/12 08:46:34;;;;;;;18.42;13.00;;;21.20;84.80;;;;;;4935970;28;20039;-72
2021/09/12 08:49:00;;;;;;;19.60;12.60;;;21.20;83.90;;;;;;4937315;28;20031;-71
2021/09/12 08:51:25;;;;;;;14.98;12.13;;;21.20;84.20;;;;;;4938912;28;20016;-71
2021/09/12 08:53:52;;;;;;;18.33;12.95;;;21.20;84.40;;;;;;4933686;28;20044;-72
2021/09/12 08:56:18;;;;;;;16.27;13.63;;;21.20;84.20;;;;;;4937423;28;20548;-72
2021/09/12 08:58:43;;;;;;;17.90;14.20;;;21.30;83.70;;;;;;4938287;28;20058;-72
2021/09/12 09:01:09;;;;;;;15.73;12.38;;;21.40;83.20;;;;;;4942656;28;20027;-72
2021/09/12 09:03:37;;;;;;;16.48;13.05;;;21.40;83.40;;;;;;4940493;28;20035;-71
2021/09/12 09:06:14;;;;;;;17.25;13.02;;;21.40;83.50;;;;;;4939497;28;20506;-71
2021/09/12 09:08:56;;;;;;;18.42;12.48;;;21.60;83.20;;;;;;4932133;28;20031;-72
2021/09/12 09:11:36;;;;;;;17.00;13.18;;;21.60;82.90;;;;;;4938753;28;20042;-71
2021/09/12 09:14:21;;;;;;;17.65;13.18;;;21.70;82.10;;;;;;4941401;28;20043;-71
2021/09/12 09:16:50;;;;;;;14.13;11.80;;;21.70;82.10;;;;;;4942670;28;20050;-72
2021/09/12 09:19:17;;;;;;;15.00;11.68;;;21.70;82.40;;;;;;4933440;28;20043;-71
2021/09/12 09:21:45;;;;;;;14.80;12.10;;;21.70;82.80;;;;;;4929161;28;20123;-72
2021/09/12 09:24:25;;;;;;;17.02;12.60;;;21.80;82.60;;;;;;4938110;28;20412;-72
2021/09/12 09:27:03;;;;;;;19.00;14.05;;;21.80;82.20;;;;;;4937958;28;20060;-72
2021/09/12 09:29:34;;;;;;;15.75;12.65;;;21.80;82.20;;;;;;4937276;28;20035;-73
2021/09/12 09:32:05;;;;;;;19.00;15.13;;;21.80;81.70;;;;;;4935246;28;20070;-72
2021/09/12 09:34:32;;;;;;;21.27;14.23;;;21.80;81.30;;;;;;4941999;28;20051;-73
2021/09/12 09:37:08;;;;;;;19.40;14.15;;;21.70;82.30;;;;;;4934841;28;20033;-73
2021/09/12 09:39:41;;;;;;;17.45;13.25;;;21.70;82.80;;;;;;4931685;29;20067;-73
2021/09/12 09:42:40;;;;;;;17.83;13.27;;;21.70;82.50;;;;;;4943064;28;20403;-72
2021/09/12 09:45:22;;;;;;;15.25;12.60;;;21.70;82.80;;;;;;4938303;28;20035;-72
2021/09/12 09:47:49;;;;;;;15.43;12.82;;;21.80;83.80;;;;;;4938338;28;20044;-71
2021/09/12 09:50:25;;;;;;;20.25;14.27;;;22.00;82.90;;;;;;4941800;28;20110;-72
2021/09/12 09:52:56;;;;;;;16.67;13.05;;;22.00;81.30;;;;;;4948306;28;20120;-72
2021/09/12 09:55:26;;;;;;;20.35;15.48;;;22.10;80.90;;;;;;4932511;29;20273;-72
2021/09/12 09:57:54;;;;;;;14.93;13.00;;;22.20;79.90;;;;;;4941281;28;20091;-73
2021/09/12 10:00:23;;;;;;;14.02;10.98;;;22.20;81.30;;;;;;4940183;28;20046;-73
2021/09/12 10:02:50;;;;;;;16.17;12.23;;;22.30;81.70;;;;;;4937465;28;20035;-73
2021/09/12 10:05:20;;;;;;;16.33;13.50;;;22.40;81.40;;;;;;4938915;28;20043;-73
2021/09/12 10:07:46;;;;;;;15.82;12.23;;;22.50;79.80;;;;;;4942835;28;20479;-73
2021/09/12 10:10:14;;;;;;;14.93;12.23;;;22.60;79.10;;;;;;4939813;28;20023;-73
2021/09/12 10:12:46;;;;;;;16.48;12.60;;;22.60;78.90;;;;;;4938505;28;20085;-73
2021/09/12 10:15:16;;;;;;;14.85;11.63;;;22.70;78.90;;;;;;4937612;28;20601;-70
2021/09/12 10:17:44;;;;;;;16.13;12.18;;;22.70;78.60;;;;;;4927999;29;20404;-73
2021/09/12 10:20:12;;;;;;;15.90;12.68;;;22.80;77.90;;;;;;4935126;28;20043;-80
2021/09/12 10:23:02;;;;;;;13.60;11.57;;;22.90;77.80;;;;;;4949921;28;20040;-79
2021/09/12 10:25:52;;;;;;;17.42;13.02;;;23.00;77.50;;;;;;4935824;29;20744;-84
2021/09/12 10:28:32;;;;;;;13.50;11.43;;;23.00;77.30;;;;;;4947780;28;20079;-80
2021/09/12 10:30:59;;;;;;;14.85;11.95;;;23.00;77.40;;;;;;4936322;29;20114;-80
2021/09/12 10:33:27;;;;;;;16.65;11.95;;;23.00;76.50;;;;;;4935847;28;20031;-80
2021/09/12 10:35:56;;;;;;;12.82;9.60;;;23.00;76.60;;;;;;4935310;29;20089;-80
2021/09/12 10:38:33;;;;;;;15.43;11.75;;;23.00;77.10;;;;;;4929004;29;20039;-75
2021/09/12 10:41:02;;;;;;;13.25;10.88;;;23.00;76.20;;;;;;4933817;29;20039;-79
2021/09/12 10:43:27;;;;;;;13.32;10.57;;;23.10;76.20;;;;;;4932368;28;20031;-77
2021/09/12 10:46:05;;;;;;;10.88;9.55;;;23.10;76.80;;;;;;4936417;28;20038;-79
2021/09/12 10:48:36;;;;;;;13.60;11.23;;;23.10;77.40;;;;;;4939006;28;20044;-78
2021/09/12 10:51:03;;;;;;;13.45;10.93;;;23.20;76.10;;;;;;4934554;29;20031;-78
2021/09/12 10:53:44;;;;;;;11.93;10.27;;;23.30;76.20;;;;;;4938256;28;20031;-80
2021/09/12 10:56:34;;;;;;;14.70;11.40;;;23.30;76.50;;;;;;4933983;28;20600;-79
2021/09/12 10:59:11;;;;;;;17.45;12.40;;;23.40;75.50;;;;;;4938426;28;20461;-79
2021/09/12 11:01:45;;;;;;;15.15;11.25;;;23.30;75.20;;;;;;4936010;29;20044;-79
2021/09/12 11:04:14;;;;;;;15.00;11.65;;;23.30;75.60;;;;;;4936489;28;20047;-77
2021/09/12 11:06:42;;;;;;;15.50;12.77;;;23.20;76.40;;;;;;4947141;28;20027;-79
2021/09/12 11:09:23;;;;;;;14.90;11.75;;;23.10;76.20;;;;;;4938688;28;20041;-79
2021/09/12 11:11:58;;;;;;;14.68;12.35;;;23.10;76.20;;;;;;4931989;28;20031;-79
2021/09/12 11:14:25;;;;;;;17.55;12.18;;;23.10;75.60;;;;;;4932393;29;20042;-79
2021/09/12 11:16:51;;;;;;;12.95;11.20;;;23.10;75.80;;;;;;4935095;28;20035;-79
2021/09/12 11:19:17;;;;;;;14.30;10.85;;;23.10;76.40;;;;;;4934278;28;20118;-80
2021/09/12 11:21:49;;;;;;;13.70;10.25;;;23.20;76.10;;;;;;4937933;29;20490;-79
2021/09/12 11:24:21;;;;;;;11.75;9.27;;;23.20;77.50;;;;;;4925515;29;20130;-79
2021/09/12 11:27:06;;;;;;;10.57;9.45;;;23.30;75.50;;;;;;4941661;28;20034;-80
2021/09/12 11:29:37;;;;;;;14.95;11.35;;;23.40;75.60;;;;;;4937080;28;20043;-80
2021/09/12 11:32:13;;;;;;;14.48;11.32;;;23.50;74.90;;;;;;4933029;28;20164;-81
2021/09/12 11:34:44;;;;;;;13.77;10.82;;;23.70;74.40;;;;;;4929768;28;20042;-82
2021/09/12 11:37:15;;;;;;;15.68;11.65;;;23.80;73.80;;;;;;4935073;29;20054;-81
2021/09/12 11:39:46;;;;;;;12.15;10.25;;;23.90;72.50;;;;;;4937130;28;20519;-81
2021/09/12 11:42:14;;;;;;;11.05;9.48;;;23.90;72.90;;;;;;4944181;28;20119;-81
2021/09/12 11:44:48;;;;;;;11.13;9.93;;;23.80;73.20;;;;;;4937663;28;20291;-82
2021/09/12 11:47:23;;;;;;;13.18;9.20;;;23.60;73.20;;;;;;4939333;28;20031;-82
2021/09/12 11:50:04;;;;;;;9.32;8.32;;;23.40;74.70;;;;;;4929489;29;20043;-82
2021/09/12 11:52:33;;;;;;;10.70;9.07;;;23.20;76.50;;;;;;4934151;29;20051;-83
2021/09/12 11:54:59;;;;;;;13.25;8.60;;;23.20;78.20;;;;;;4935878;29;20065;-82
2021/09/12 11:57:25;;;;;;;10.60;7.93;;;23.10;79.50;;;;;;4943761;28;20047;-82
2021/09/12 11:59:51;;;;;;;11.25;7.70;;;23.00;80.30;;;;;;4949058;28;20134;-82
2021/09/12 12:02:24;;;;;;;8.10;7.07;;;22.90;80.20;;;;;;4934972;29;20070;-81
2021/09/12 12:04:51;;;;;;;8.93;7.70;;;22.90;80.80;;;;;;4932089;29;20073;-81
2021/09/12 12:07:18;;;;;;;7.65;6.72;;;22.90;80.80;;;;;;4952302;28;20064;-81
2021/09/12 12:09:48;;;;;;;8.30;7.05;;;23.00;78.80;;;;;;4930163;29;20035;-81
2021/09/12 12:12:15;;;;;;;9.65;7.60;;;23.10;78.30;;;;;;4935362;29;20067;-81
2021/09/12 12:14:45;;;;;;;9.30;7.60;;;23.30;77.10;;;;;;4951117;28;20515;-81
2021/09/12 12:17:15;;;;;;;7.82;7.00;;;23.40;76.50;;;;;;4939440;29;20054;-81
2021/09/12 12:19:41;;;;;;;8.57;6.82;;;23.50;75.10;;;;;;4929242;29;20098;-81
2021/09/12 12:22:08;;;;;;;9.68;7.32;;;23.50;76.20;;;;;;4934368;29;20111;-80
2021/09/12 12:24:46;;;;;;;9.15;6.68;;;23.70;75.20;;;;;;4935546;28;20122;-81
2021/09/12 12:27:14;;;;;;;12.25;6.55;;;23.70;74.50;;;;;;4932919;29;20062;-84
2021/09/12 12:29:43;;;;;;;9.13;6.78;;;23.80;74.00;;;;;;4942748;29;20384;-81